sensor_id;sensor_type;location;lat;lon;timestamp;pressure;altitude;pressure_sealevel;temperature;humidity
48846;BME280;34665;51.886;5.436;2023-05-19T00:01:08;102557.00;;;19.19;65.19
48846;BME280;34665;51.886;5.436;2023-05-19T00:03:35;102556.19;;;18.98;65.75
48846;BME280;34665;51.886;5.436;2023-05-19T00:06:06;102558.88;;;18.91;66.48
48846;BME280;34665;51.886;5.436;2023-05-19T00:08:36;102558.66;;;18.80;67.62
48846;BME280;34665;51.886;5.436;2023-05-19T00:11:02;102557.41;;;18.89;67.36
48846;BME280;34665;51.886;5.436;2023-05-19T00:13:28;102563.03;;;18.67;67.78
48846;BME280;34665;51.886;5.436;2023-05-19T00:15:54;102550.97;;;18.76;67.78
48846;BME280;34665;51.886;5.436;2023-05-19T00:18:20;102556.56;;;18.82;67.64
48846;BME280;34665;51.886;5.436;2023-05-19T00:20:45;102550.34;;;18.81;67.41
48846;BME280;34665;51.886;5.436;2023-05-19T00:23:10;102544.69;;;18.83;67.63
48846;BME280;34665;51.886;5.436;2023-05-19T00:25:36;102540.31;;;18.82;67.09
48846;BME280;34665;51.886;5.436;2023-05-19T00:28:02;102543.22;;;18.60;67.73
48846;BME280;34665;51.886;5.436;2023-05-19T00:30:29;102534.06;;;18.74;67.50
48846;BME280;34665;51.886;5.436;2023-05-19T00:32:55;102530.13;;;18.70;67.86
48846;BME280;34665;51.886;5.436;2023-05-19T00:35:21;102527.41;;;18.70;68.06
48846;BME280;34665;51.886;5.436;2023-05-19T00:37:47;102523.22;;;18.61;68.84
48846;BME280;34665;51.886;5.436;2023-05-19T00:40:13;102530.53;;;18.60;68.89
48846;BME280;34665;51.886;5.436;2023-05-19T00:42:39;102525.13;;;18.60;68.72
48846;BME280;34665;51.886;5.436;2023-05-19T00:45:05;102530.31;;;18.62;68.73
48846;BME280;34665;51.886;5.436;2023-05-19T00:47:32;102531.13;;;18.49;69.21
48846;BME280;34665;51.886;5.436;2023-05-19T00:49:58;102531.13;;;18.42;69.82
48846;BME280;34665;51.886;5.436;2023-05-19T00:52:24;102531.13;;;18.42;70.24
48846;BME280;34665;51.886;5.436;2023-05-19T00:54:51;102534.25;;;18.39;70.27
48846;BME280;34665;51.886;5.436;2023-05-19T00:57:17;102537.59;;;18.34;71.13
48846;BME280;34665;51.886;5.436;2023-05-19T00:59:42;102531.75;;;18.44;70.42
48846;BME280;34665;51.886;5.436;2023-05-19T01:02:08;102536.94;;;18.19;71.68
48846;BME280;34665;51.886;5.436;2023-05-19T01:04:35;102530.91;;;18.37;71.35
48846;BME280;34665;51.886;5.436;2023-05-19T01:07:02;102530.28;;;18.28;72.06
48846;BME280;34665;51.886;5.436;2023-05-19T01:09:27;102533.22;;;18.27;72.54
48846;BME280;34665;51.886;5.436;2023-05-19T01:11:54;102532.59;;;18.25;72.81
48846;BME280;34665;51.886;5.436;2023-05-19T01:14:20;102535.28;;;18.25;73.00
48846;BME280;34665;51.886;5.436;2023-05-19T01:17:00;102529.88;;;18.18;74.12
48846;BME280;34665;51.886;5.436;2023-05-19T01:30:54;102523.09;;;17.94;78.42
48846;BME280;34665;51.886;5.436;2023-05-19T01:33:21;102522.44;;;17.78;79.67
48846;BME280;34665;51.886;5.436;2023-05-19T01:35:49;102526.59;;;17.81;79.59
48846;BME280;34665;51.886;5.436;2023-05-19T01:38:17;102517.25;;;17.83;79.93
48846;BME280;34665;51.886;5.436;2023-05-19T01:40:44;102525.38;;;17.83;79.98
48846;BME280;34665;51.886;5.436;2023-05-19T01:43:17;102519.84;;;17.56;81.31
48846;BME280;34665;51.886;5.436;2023-05-19T01:45:43;102522.56;;;17.56;82.45
48846;BME280;34665;51.886;5.436;2023-05-19T01:48:09;102515.41;;;17.42;84.46
48846;BME280;34665;51.886;5.436;2023-05-19T01:50:37;102516.69;;;17.46;84.49
48846;BME280;34665;51.886;5.436;2023-05-19T01:53:03;102509.19;;;17.48;84.35
48846;BME280;34665;51.886;5.436;2023-05-19T01:55:29;102513.16;;;17.52;84.38
48846;BME280;34665;51.886;5.436;2023-05-19T02:01:20;102505.81;;;17.39;85.30
48846;BME280;34665;51.886;5.436;2023-05-19T02:07:40;102502.88;;;17.34;87.46
48846;BME280;34665;51.886;5.436;2023-05-19T02:09:48;102502.97;;;17.47;86.79
48846;BME280;34665;51.886;5.436;2023-05-19T02:12:34;102504.59;;;17.06;89.86
48846;BME280;34665;51.886;5.436;2023-05-19T02:15:10;102501.53;;;17.10;91.42
48846;BME280;34665;51.886;5.436;2023-05-19T02:17:39;102500.00;;;17.00;92.23
48846;BME280;34665;51.886;5.436;2023-05-19T02:20:08;102504.84;;;17.12;91.14
48846;BME280;34665;51.886;5.436;2023-05-19T02:22:35;102500.22;;;16.99;92.78
48846;BME280;34665;51.886;5.436;2023-05-19T02:25:01;102505.03;;;17.10;92.25
48846;BME280;34665;51.886;5.436;2023-05-19T02:27:27;102500.72;;;16.87;94.50
48846;BME280;34665;51.886;5.436;2023-05-19T02:29:52;102502.19;;;16.90;93.56
48846;BME280;34665;51.886;5.436;2023-05-19T02:32:19;102491.88;;;17.00;93.67
48846;BME280;34665;51.886;5.436;2023-05-19T02:34:45;102495.75;;;17.19;91.60
48846;BME280;34665;51.886;5.436;2023-05-19T02:37:14;102498.41;;;17.13;92.13
48846;BME280;34665;51.886;5.436;2023-05-19T02:39:41;102490.06;;;17.08;92.07
48846;BME280;34665;51.886;5.436;2023-05-19T02:42:06;102490.91;;;17.08;92.03
48846;BME280;34665;51.886;5.436;2023-05-19T02:44:32;102486.78;;;16.90;94.11
48846;BME280;34665;51.886;5.436;2023-05-19T02:46:57;102488.00;;;17.10;92.02
48846;BME280;34665;51.886;5.436;2023-05-19T02:49:23;102481.78;;;17.16;91.59
48846;BME280;34665;51.886;5.436;2023-05-19T02:51:48;102483.63;;;17.09;92.50
48846;BME280;34665;51.886;5.436;2023-05-19T02:54:14;102477.97;;;17.03;91.86
48846;BME280;34665;51.886;5.436;2023-05-19T02:56:39;102486.47;;;17.00;93.20
48846;BME280;34665;51.886;5.436;2023-05-19T02:59:05;102479.78;;;16.96;92.19
48846;BME280;34665;51.886;5.436;2023-05-19T03:01:30;102479.00;;;17.02;93.49
48846;BME280;34665;51.886;5.436;2023-05-19T03:03:57;102478.31;;;17.29;90.80
48846;BME280;34665;51.886;5.436;2023-05-19T03:06:22;102481.63;;;17.24;91.46
48846;BME280;34665;51.886;5.436;2023-05-19T03:08:49;102478.06;;;16.88;94.17
48846;BME280;34665;51.886;5.436;2023-05-19T03:11:15;102481.97;;;17.08;93.38
48846;BME280;34665;51.886;5.436;2023-05-19T03:13:41;102472.16;;;17.06;92.91
48846;BME280;34665;51.886;5.436;2023-05-19T03:16:06;102474.31;;;17.18;91.81
48846;BME280;34665;51.886;5.436;2023-05-19T03:18:33;102474.94;;;17.20;92.00
48846;BME280;34665;51.886;5.436;2023-05-19T03:20:59;102477.03;;;17.18;91.85
48846;BME280;34665;51.886;5.436;2023-05-19T03:23:24;102471.53;;;17.04;93.55
48846;BME280;34665;51.886;5.436;2023-05-19T03:25:51;102470.75;;;17.11;93.56
48846;BME280;34665;51.886;5.436;2023-05-19T03:28:18;102477.66;;;17.20;92.06
48846;BME280;34665;51.886;5.436;2023-05-19T03:30:44;102476.78;;;17.13;92.20
48846;BME280;34665;51.886;5.436;2023-05-19T03:33:15;102476.88;;;16.98;93.71
48846;BME280;34665;51.886;5.436;2023-05-19T03:35:41;102477.34;;;17.01;95.00
48846;BME280;34665;51.886;5.436;2023-05-19T03:38:09;102476.63;;;17.21;92.84
48846;BME280;34665;51.886;5.436;2023-05-19T03:40:35;102480.34;;;17.20;92.94
48846;BME280;34665;51.886;5.436;2023-05-19T03:43:07;102484.72;;;17.21;92.48
48846;BME280;34665;51.886;5.436;2023-05-19T03:45:41;102479.13;;;16.94;95.04
48846;BME280;34665;51.886;5.436;2023-05-19T03:48:26;102479.53;;;16.91;95.19
48846;BME280;34665;51.886;5.436;2023-05-19T03:51:11;102476.38;;;17.16;93.72
48846;BME280;34665;51.886;5.436;2023-05-19T03:53:36;102486.50;;;17.42;90.83
48846;BME280;34665;51.886;5.436;2023-05-19T03:56:03;102483.78;;;17.36;89.22
48846;BME280;34665;51.886;5.436;2023-05-19T03:58:28;102485.13;;;17.18;91.74
48846;BME280;34665;51.886;5.436;2023-05-19T04:00:54;102468.50;;;16.86;95.55
48846;BME280;34665;51.886;5.436;2023-05-19T04:03:19;102479.38;;;17.28;92.55
48846;BME280;34665;51.886;5.436;2023-05-19T04:05:45;102483.50;;;16.95;95.05
48846;BME280;34665;51.886;5.436;2023-05-19T04:08:11;102471.19;;;16.86;96.01
48846;BME280;34665;51.886;5.436;2023-05-19T04:10:36;102480.63;;;16.97;95.15
48846;BME280;34665;51.886;5.436;2023-05-19T04:13:02;102485.28;;;16.81;96.72
48846;BME280;34665;51.886;5.436;2023-05-19T04:15:27;102484.16;;;16.97;96.88
48846;BME280;34665;51.886;5.436;2023-05-19T04:17:54;102488.25;;;17.15;94.76
48846;BME280;34665;51.886;5.436;2023-05-19T04:20:20;102492.03;;;17.27;94.40
48846;BME280;34665;51.886;5.436;2023-05-19T04:22:45;102483.78;;;17.00;97.99
48846;BME280;34665;51.886;5.436;2023-05-19T04:25:10;102488.00;;;17.10;96.25
48846;BME280;34665;51.886;5.436;2023-05-19T04:27:36;102492.16;;;17.12;96.19
48846;BME280;34665;51.886;5.436;2023-05-19T04:30:04;102497.56;;;16.84;97.85
48846;BME280;34665;51.886;5.436;2023-05-19T04:32:30;102492.06;;;16.70;99.94
48846;BME280;34665;51.886;5.436;2023-05-19T04:34:57;102485.41;;;16.66;100.00
48846;BME280;34665;51.886;5.436;2023-05-19T04:37:24;102488.50;;;16.63;100.00
48846;BME280;34665;51.886;5.436;2023-05-19T04:39:50;102483.47;;;16.88;98.84
48846;BME280;34665;51.886;5.436;2023-05-19T04:42:18;102485.34;;;16.88;100.00
48846;BME280;34665;51.886;5.436;2023-05-19T04:44:44;102488.91;;;17.24;96.69
48846;BME280;34665;51.886;5.436;2023-05-19T04:47:10;102486.88;;;17.32;95.70
48846;BME280;34665;51.886;5.436;2023-05-19T04:49:36;102493.88;;;17.20;94.79
48846;BME280;34665;51.886;5.436;2023-05-19T04:54:33;102484.09;;;17.19;97.02
48846;BME280;34665;51.886;5.436;2023-05-19T04:56:59;102496.25;;;17.37;95.95
48846;BME280;34665;51.886;5.436;2023-05-19T04:59:27;102496.34;;;17.15;96.14
48846;BME280;34665;51.886;5.436;2023-05-19T05:01:54;102497.22;;;16.94;100.00
48846;BME280;34665;51.886;5.436;2023-05-19T05:04:20;102496.47;;;17.00;99.17
48846;BME280;34665;51.886;5.436;2023-05-19T05:06:46;102495.31;;;17.16;97.85
48846;BME280;34665;51.886;5.436;2023-05-19T05:09:15;102502.25;;;17.32;96.55
48846;BME280;34665;51.886;5.436;2023-05-19T05:11:41;102503.13;;;17.39;95.63
48846;BME280;34665;51.886;5.436;2023-05-19T05:14:07;102506.06;;;17.44;95.51
48846;BME280;34665;51.886;5.436;2023-05-19T05:16:33;102505.38;;;17.29;97.03
48846;BME280;34665;51.886;5.436;2023-05-19T05:19:00;102501.59;;;17.23;97.38
48846;BME280;34665;51.886;5.436;2023-05-19T05:21:26;102514.16;;;17.38;96.71
48846;BME280;34665;51.886;5.436;2023-05-19T05:23:52;102512.88;;;17.33;98.08
48846;BME280;34665;51.886;5.436;2023-05-19T05:26:20;102512.06;;;17.40;97.22
48846;BME280;34665;51.886;5.436;2023-05-19T05:28:53;102509.16;;;17.34;98.29
48846;BME280;34665;51.886;5.436;2023-05-19T05:31:18;102511.22;;;17.95;95.45
48846;BME280;34665;51.886;5.436;2023-05-19T05:33:44;102517.59;;;17.67;95.46
48846;BME280;34665;51.886;5.436;2023-05-19T05:36:12;102512.00;;;17.75;94.19
48846;BME280;34665;51.886;5.436;2023-05-19T05:38:38;102503.91;;;17.82;93.86
48846;BME280;34665;51.886;5.436;2023-05-19T05:41:03;102508.31;;;17.89;93.19
48846;BME280;34665;51.886;5.436;2023-05-19T05:43:31;102504.53;;;17.77;94.77
48846;BME280;34665;51.886;5.436;2023-05-19T05:45:59;102503.34;;;17.93;92.75
48846;BME280;34665;51.886;5.436;2023-05-19T05:48:25;102493.13;;;17.88;93.72
48846;BME280;34665;51.886;5.436;2023-05-19T05:50:51;102506.53;;;18.30;90.12
48846;BME280;34665;51.886;5.436;2023-05-19T05:53:23;102505.50;;;18.25;90.31
48846;BME280;34665;51.886;5.436;2023-05-19T05:55:52;102505.69;;;18.97;86.71
48846;BME280;34665;51.886;5.436;2023-05-19T05:58:19;102510.28;;;18.90;82.75
48846;BME280;34665;51.886;5.436;2023-05-19T06:00:45;102513.03;;;18.43;85.26
48846;BME280;34665;51.886;5.436;2023-05-19T06:03:13;102513.66;;;18.58;84.77
48846;BME280;34665;51.886;5.436;2023-05-19T06:05:39;102504.06;;;18.69;84.09
48846;BME280;34665;51.886;5.436;2023-05-19T06:08:05;102504.50;;;19.52;79.33
48846;BME280;34665;51.886;5.436;2023-05-19T06:10:30;102509.59;;;20.19;73.29
48846;BME280;34665;51.886;5.436;2023-05-19T06:12:57;102517.09;;;20.49;70.90
48846;BME280;34665;51.886;5.436;2023-05-19T06:15:24;102513.03;;;20.08;72.71
48846;BME280;34665;51.886;5.436;2023-05-19T06:18:13;102505.16;;;19.93;72.50
48846;BME280;34665;51.886;5.436;2023-05-19T06:20:38;102517.91;;;19.86;73.56
48846;BME280;34665;51.886;5.436;2023-05-19T06:23:04;102517.22;;;20.04;72.78
48846;BME280;34665;51.886;5.436;2023-05-19T06:25:30;102511.16;;;20.02;71.33
48846;BME280;34665;51.886;5.436;2023-05-19T06:27:56;102515.31;;;20.11;71.44
48846;BME280;34665;51.886;5.436;2023-05-19T06:30:22;102518.13;;;20.30;70.88
48846;BME280;34665;51.886;5.436;2023-05-19T06:33:05;102510.41;;;20.52;69.58
48846;BME280;34665;51.886;5.436;2023-05-19T06:35:31;102519.25;;;20.41;69.00
48846;BME280;34665;51.886;5.436;2023-05-19T06:37:57;102510.44;;;20.45;67.50
48846;BME280;34665;51.886;5.436;2023-05-19T06:40:22;102515.91;;;20.71;66.77
48846;BME280;34665;51.886;5.436;2023-05-19T06:42:48;102508.91;;;20.82;66.66
48846;BME280;34665;51.886;5.436;2023-05-19T06:45:20;102510.91;;;20.68;65.76
48846;BME280;34665;51.886;5.436;2023-05-19T06:47:48;102514.75;;;21.04;65.38
48846;BME280;34665;51.886;5.436;2023-05-19T06:50:14;102519.81;;;21.19;63.94
48846;BME280;34665;51.886;5.436;2023-05-19T06:52:41;102522.09;;;21.41;63.20
48846;BME280;34665;51.886;5.436;2023-05-19T06:55:07;102521.22;;;21.77;61.39
48846;BME280;34665;51.886;5.436;2023-05-19T06:57:34;102517.41;;;21.48;61.32
48846;BME280;34665;51.886;5.436;2023-05-19T07:00:01;102519.06;;;21.68;61.69
48846;BME280;34665;51.886;5.436;2023-05-19T07:02:26;102519.81;;;21.75;60.97
48846;BME280;34665;51.886;5.436;2023-05-19T07:04:52;102530.25;;;21.78;61.00
48846;BME280;34665;51.886;5.436;2023-05-19T07:07:19;102527.66;;;21.83;60.30
48846;BME280;34665;51.886;5.436;2023-05-19T07:09:46;102531.78;;;21.74;60.60
48846;BME280;34665;51.886;5.436;2023-05-19T07:12:12;102528.44;;;21.72;60.13
48846;BME280;34665;51.886;5.436;2023-05-19T07:14:37;102523.28;;;21.63;60.22
48846;BME280;34665;51.886;5.436;2023-05-19T07:17:03;102532.88;;;21.85;60.83
48846;BME280;34665;51.886;5.436;2023-05-19T07:19:32;102534.03;;;21.77;60.25
48846;BME280;34665;51.886;5.436;2023-05-19T07:21:57;102525.34;;;21.99;60.63
48846;BME280;34665;51.886;5.436;2023-05-19T07:24:24;102520.13;;;21.97;60.20
48846;BME280;34665;51.886;5.436;2023-05-19T07:26:51;102529.44;;;21.89;61.29
48846;BME280;34665;51.886;5.436;2023-05-19T07:29:18;102522.72;;;21.92;60.70
48846;BME280;34665;51.886;5.436;2023-05-19T07:31:43;102525.22;;;21.94;59.54
48846;BME280;34665;51.886;5.436;2023-05-19T07:34:09;102533.00;;;22.20;58.91
48846;BME280;34665;51.886;5.436;2023-05-19T07:36:34;102527.09;;;22.24;58.72
48846;BME280;34665;51.886;5.436;2023-05-19T07:39:00;102518.69;;;22.37;57.86
48846;BME280;34665;51.886;5.436;2023-05-19T07:41:26;102522.94;;;22.33;56.93
48846;BME280;34665;51.886;5.436;2023-05-19T07:43:51;102513.41;;;22.54;57.06
48846;BME280;34665;51.886;5.436;2023-05-19T07:46:16;102524.06;;;22.68;56.67
48846;BME280;34665;51.886;5.436;2023-05-19T07:48:42;102516.16;;;22.66;56.18
48846;BME280;34665;51.886;5.436;2023-05-19T07:51:07;102519.09;;;22.76;55.47
48846;BME280;34665;51.886;5.436;2023-05-19T07:53:37;102521.81;;;22.88;54.95
48846;BME280;34665;51.886;5.436;2023-05-19T07:56:03;102524.03;;;23.15;53.49
48846;BME280;34665;51.886;5.436;2023-05-19T07:58:29;102514.56;;;23.30;52.54
48846;BME280;34665;51.886;5.436;2023-05-19T08:00:57;102518.25;;;23.36;52.07
48846;BME280;34665;51.886;5.436;2023-05-19T08:03:23;102507.03;;;23.49;50.74
48846;BME280;34665;51.886;5.436;2023-05-19T08:05:48;102513.69;;;23.53;49.99
48846;BME280;34665;51.886;5.436;2023-05-19T08:08:14;102512.44;;;24.02;49.22
48846;BME280;34665;51.886;5.436;2023-05-19T08:10:41;102508.66;;;23.91;48.52
48846;BME280;34665;51.886;5.436;2023-05-19T08:13:07;102510.50;;;24.02;48.14
48846;BME280;34665;51.886;5.436;2023-05-19T08:15:32;102506.41;;;23.88;48.07
48846;BME280;34665;51.886;5.436;2023-05-19T08:17:58;102507.63;;;24.09;47.96
48846;BME280;34665;51.886;5.436;2023-05-19T08:20:23;102506.31;;;24.12;46.97
48846;BME280;34665;51.886;5.436;2023-05-19T08:22:49;102509.53;;;23.97;47.02
48846;BME280;34665;51.886;5.436;2023-05-19T08:25:15;102508.38;;;24.22;46.88
48846;BME280;34665;51.886;5.436;2023-05-19T08:27:40;102509.53;;;24.43;46.75
48846;BME280;34665;51.886;5.436;2023-05-19T08:30:06;102503.50;;;24.24;46.69
48846;BME280;34665;51.886;5.436;2023-05-19T08:32:32;102496.03;;;24.36;45.94
48846;BME280;34665;51.886;5.436;2023-05-19T08:34:58;102500.75;;;24.58;45.59
48846;BME280;34665;51.886;5.436;2023-05-19T08:37:23;102496.03;;;24.53;45.64
48846;BME280;34665;51.886;5.436;2023-05-19T08:39:49;102490.25;;;24.49;45.00
48846;BME280;34665;51.886;5.436;2023-05-19T08:42:14;102490.34;;;24.94;44.11
48846;BME280;34665;51.886;5.436;2023-05-19T08:44:40;102484.78;;;24.89;43.43
48846;BME280;34665;51.886;5.436;2023-05-19T08:47:08;102490.78;;;24.86;43.21
48846;BME280;34665;51.886;5.436;2023-05-19T08:49:45;102483.59;;;24.80;42.99
48846;BME280;34665;51.886;5.436;2023-05-19T08:52:30;102478.19;;;24.85;42.72
48846;BME280;34665;51.886;5.436;2023-05-19T08:55:04;102482.97;;;25.17;41.96
48846;BME280;34665;51.886;5.436;2023-05-19T08:57:35;102477.28;;;25.46;40.95
48846;BME280;34665;51.886;5.436;2023-05-19T09:00:02;102479.56;;;25.76;40.95
48846;BME280;34665;51.886;5.436;2023-05-19T09:02:35;102470.03;;;25.57;40.56
48846;BME280;34665;51.886;5.436;2023-05-19T09:05:03;102477.41;;;26.11;40.26
48846;BME280;34665;51.886;5.436;2023-05-19T09:07:30;102465.63;;;26.16;40.30
48846;BME280;34665;51.886;5.436;2023-05-19T09:09:59;102474.91;;;26.42;39.64
48846;BME280;34665;51.886;5.436;2023-05-19T09:12:25;102471.59;;;26.40;39.39
48846;BME280;34665;51.886;5.436;2023-05-19T09:14:51;102472.81;;;26.60;39.04
48846;BME280;34665;51.886;5.436;2023-05-19T09:17:17;102468.44;;;26.64;39.16
48846;BME280;34665;51.886;5.436;2023-05-19T09:19:46;102466.56;;;26.65;37.84
48846;BME280;34665;51.886;5.436;2023-05-19T09:22:14;102468.69;;;26.62;37.43
48846;BME280;34665;51.886;5.436;2023-05-19T09:24:40;102470.81;;;26.45;37.72
48846;BME280;34665;51.886;5.436;2023-05-19T09:27:06;102466.28;;;26.71;36.52
48846;BME280;34665;51.886;5.436;2023-05-19T09:29:31;102463.75;;;27.13;36.29
48846;BME280;34665;51.886;5.436;2023-05-19T09:31:56;102462.47;;;27.36;36.35
48846;BME280;34665;51.886;5.436;2023-05-19T09:34:25;102467.25;;;27.77;35.39
48846;BME280;34665;51.886;5.436;2023-05-19T09:36:52;102466.72;;;28.22;33.73
48846;BME280;34665;51.886;5.436;2023-05-19T09:39:19;102466.56;;;28.94;33.37
48846;BME280;34665;51.886;5.436;2023-05-19T09:41:46;102461.09;;;28.84;33.94
48846;BME280;34665;51.886;5.436;2023-05-19T09:44:13;102470.63;;;29.07;32.74
48846;BME280;34665;51.886;5.436;2023-05-19T09:46:52;102469.50;;;29.98;31.70
48846;BME280;34665;51.886;5.436;2023-05-19T09:49:21;102473.97;;;30.53;30.43
48846;BME280;34665;51.886;5.436;2023-05-19T09:51:56;102480.16;;;31.13;29.49
48846;BME280;34665;51.886;5.436;2023-05-19T09:54:23;102471.19;;;31.65;28.85
48846;BME280;34665;51.886;5.436;2023-05-19T09:57:03;102474.97;;;31.88;29.28
48846;BME280;34665;51.886;5.436;2023-05-19T09:59:30;102473.47;;;32.57;28.09
48846;BME280;34665;51.886;5.436;2023-05-19T10:01:57;102474.00;;;32.59;27.91
48846;BME280;34665;51.886;5.436;2023-05-19T10:04:25;102465.91;;;32.77;27.29
48846;BME280;34665;51.886;5.436;2023-05-19T10:06:52;102471.19;;;32.31;27.57
48846;BME280;34665;51.886;5.436;2023-05-19T10:09:25;102468.47;;;32.12;27.36
48846;BME280;34665;51.886;5.436;2023-05-19T10:11:52;102468.25;;;31.75;27.99
48846;BME280;34665;51.886;5.436;2023-05-19T10:14:22;102464.56;;;32.13;27.64
48846;BME280;34665;51.886;5.436;2023-05-19T10:16:49;102464.66;;;32.83;26.49
48846;BME280;34665;51.886;5.436;2023-05-19T10:19:15;102464.72;;;33.56;25.58
48846;BME280;34665;51.886;5.436;2023-05-19T10:21:41;102461.56;;;33.72;25.42
48846;BME280;34665;51.886;5.436;2023-05-19T10:24:07;102468.09;;;34.62;24.76
48846;BME280;34665;51.886;5.436;2023-05-19T10:26:33;102465.81;;;34.64;25.34
48846;BME280;34665;51.886;5.436;2023-05-19T10:29:01;102462.47;;;35.11;25.29
48846;BME280;34665;51.886;5.436;2023-05-19T10:31:27;102460.19;;;35.22;24.69
48846;BME280;34665;51.886;5.436;2023-05-19T10:36:45;102455.91;;;35.78;22.80
48846;BME280;34665;51.886;5.436;2023-05-19T10:39:17;102452.91;;;36.09;22.98
48846;BME280;34665;51.886;5.436;2023-05-19T10:42:03;102443.84;;;36.60;22.17
48846;BME280;34665;51.886;5.436;2023-05-19T10:47:10;102457.63;;;37.50;21.77
48846;BME280;34665;51.886;5.436;2023-05-19T10:49:36;102449.38;;;36.30;21.63
48846;BME280;34665;51.886;5.436;2023-05-19T10:52:02;102450.94;;;36.79;21.25
48846;BME280;34665;51.886;5.436;2023-05-19T10:54:41;102458.38;;;37.38;21.02
48846;BME280;34665;51.886;5.436;2023-05-19T10:57:16;102448.50;;;38.08;20.69
48846;BME280;34665;51.886;5.436;2023-05-19T10:59:42;102448.84;;;38.69;19.91
48846;BME280;34665;51.886;5.436;2023-05-19T11:02:37;102453.81;;;39.00;20.31
48846;BME280;34665;51.886;5.436;2023-05-19T11:05:11;102450.50;;;39.11;19.10
48846;BME280;34665;51.886;5.436;2023-05-19T11:07:42;102456.25;;;39.30;19.88
48846;BME280;34665;51.886;5.436;2023-05-19T11:10:10;102441.41;;;38.23;20.51
48846;BME280;34665;51.886;5.436;2023-05-19T11:12:40;102442.66;;;38.01;21.18
48846;BME280;34665;51.886;5.436;2023-05-19T11:15:14;102438.94;;;37.63;21.56
48846;BME280;34665;51.886;5.436;2023-05-19T11:17:41;102444.94;;;38.98;20.12
48846;BME280;34665;51.886;5.436;2023-05-19T11:20:08;102441.31;;;39.39;19.55
48846;BME280;34665;51.886;5.436;2023-05-19T11:22:36;102437.50;;;40.24;19.47
48846;BME280;34665;51.886;5.436;2023-05-19T11:25:03;102433.38;;;41.28;18.52
48846;BME280;34665;51.886;5.436;2023-05-19T11:27:31;102432.97;;;41.69;17.54
48846;BME280;34665;51.886;5.436;2023-05-19T11:30:01;102435.72;;;41.89;17.47
48846;BME280;34665;51.886;5.436;2023-05-19T11:32:43;102432.50;;;42.14;17.34
48846;BME280;34665;51.886;5.436;2023-05-19T11:35:12;102430.72;;;42.56;17.19
48846;BME280;34665;51.886;5.436;2023-05-19T11:37:38;102435.34;;;42.18;17.14
48846;BME280;34665;51.886;5.436;2023-05-19T11:40:06;102425.44;;;42.51;17.06
48846;BME280;34665;51.886;5.436;2023-05-19T11:42:32;102425.81;;;42.49;16.33
48846;BME280;34665;51.886;5.436;2023-05-19T11:44:59;102418.22;;;42.53;16.62
48846;BME280;34665;51.886;5.436;2023-05-19T11:47:24;102422.34;;;42.90;16.65
48846;BME280;34665;51.886;5.436;2023-05-19T11:49:53;102423.66;;;43.00;16.51
48846;BME280;34665;51.886;5.436;2023-05-19T11:52:24;102427.88;;;43.17;16.39
48846;BME280;34665;51.886;5.436;2023-05-19T11:54:52;102421.78;;;43.49;16.21
48846;BME280;34665;51.886;5.436;2023-05-19T11:57:18;102412.28;;;42.59;16.61
48846;BME280;34665;51.886;5.436;2023-05-19T11:59:44;102419.00;;;42.81;17.21
48846;BME280;34665;51.886;5.436;2023-05-19T12:04:38;102411.84;;;42.03;17.62
48846;BME280;34665;51.886;5.436;2023-05-19T12:07:03;102414.06;;;41.66;17.52
48846;BME280;34665;51.886;5.436;2023-05-19T12:09:29;102417.28;;;41.92;16.93
48846;BME280;34665;51.886;5.436;2023-05-19T12:11:54;102410.56;;;42.23;16.65
48846;BME280;34665;51.886;5.436;2023-05-19T12:14:20;102405.00;;;42.27;15.96
48846;BME280;34665;51.886;5.436;2023-05-19T12:16:45;102411.25;;;43.05;16.11
48846;BME280;34665;51.886;5.436;2023-05-19T12:19:11;102403.41;;;43.63;15.64
48846;BME280;34665;51.886;5.436;2023-05-19T12:21:36;102404.81;;;43.83;15.58
48846;BME280;34665;51.886;5.436;2023-05-19T12:24:03;102412.63;;;44.08;15.55
48846;BME280;34665;51.886;5.436;2023-05-19T12:26:30;102408.59;;;44.09;15.29
48846;BME280;34665;51.886;5.436;2023-05-19T12:28:57;102410.53;;;44.61;15.61
48846;BME280;34665;51.886;5.436;2023-05-19T12:31:22;102403.25;;;43.90;15.00
48846;BME280;34665;51.886;5.436;2023-05-19T12:33:48;102401.94;;;42.66;16.20
48846;BME280;34665;51.886;5.436;2023-05-19T12:36:17;102388.22;;;41.80;16.72
48846;BME280;34665;51.886;5.436;2023-05-19T12:38:44;102395.31;;;41.74;17.10
48846;BME280;34665;51.886;5.436;2023-05-19T12:41:10;102385.56;;;41.21;16.51
48846;BME280;34665;51.886;5.436;2023-05-19T12:43:39;102385.34;;;41.77;16.13
48846;BME280;34665;51.886;5.436;2023-05-19T12:46:12;102381.53;;;42.16;16.17
48846;BME280;34665;51.886;5.436;2023-05-19T12:48:45;102380.63;;;42.08;16.22
48846;BME280;34665;51.886;5.436;2023-05-19T12:51:18;102373.66;;;42.25;16.60
48846;BME280;34665;51.886;5.436;2023-05-19T12:53:44;102379.06;;;42.10;16.30
48846;BME280;34665;51.886;5.436;2023-05-19T12:56:12;102373.69;;;42.28;16.39
48846;BME280;34665;51.886;5.436;2023-05-19T12:58:38;102372.00;;;41.97;15.95
48846;BME280;34665;51.886;5.436;2023-05-19T13:01:05;102358.53;;;41.13;16.43
48846;BME280;34665;51.886;5.436;2023-05-19T13:03:30;102355.91;;;40.61;16.99
48846;BME280;34665;51.886;5.436;2023-05-19T13:05:56;102347.38;;;39.86;18.00
48846;BME280;34665;51.886;5.436;2023-05-19T13:08:23;102349.38;;;40.37;16.68
48846;BME280;34665;51.886;5.436;2023-05-19T13:10:50;102348.81;;;39.80;17.81
48846;BME280;34665;51.886;5.436;2023-05-19T13:13:15;102348.66;;;40.40;16.55
48846;BME280;34665;51.886;5.436;2023-05-19T13:15:43;102347.50;;;40.61;16.68
48846;BME280;34665;51.886;5.436;2023-05-19T13:18:11;102337.88;;;39.75;17.04
48846;BME280;34665;51.886;5.436;2023-05-19T13:20:38;102338.91;;;39.06;17.70